Time;durP1;ratioP1;P1;durP2;ratioP2;P2;SDS_P1;SDS_P2;PMS_P1;PMS_P2;Temp;Humidity;BMP_temperature;BMP_pressure;BME280_temperature;BME280_humidity;BME280_pressure;Samples;Min_cycle;Max_cycle;Signal;HPM_P1;HPM_P2
2023/01/04 00:00:25;;;;;;;1.80;0.98;;;;;;;1.18;82.10;98116.31;5054338;28;20046;-75
2023/01/04 00:02:49;;;;;;;0.30;0.30;;;;;;;1.12;81.99;98121.94;5098647;28;20058;-78
2023/01/04 00:05:14;;;;;;;0.30;0.30;;;;;;;1.13;82.22;98119.19;5101280;28;20050;-76
2023/01/04 00:07:38;;;;;;;0.40;0.40;;;;;;;1.18;81.85;98132.91;5101986;27;20060;-75
2023/01/04 00:10:03;;;;;;;0.40;0.40;;;;;;;1.21;81.51;98129.25;5102135;27;20050;-73
2023/01/04 00:12:30;;;;;;;0.43;0.43;;;;;;;1.15;81.64;98132.22;5063836;28;20876;-70
2023/01/04 00:14:55;;;;;;;1.13;0.80;;;;;;;1.23;81.27;98124.78;5080066;27;20095;-76
2023/01/04 00:17:20;;;;;;;0.25;0.25;;;;;;;1.25;81.14;98142.09;5089443;27;20105;-71
2023/01/04 00:19:45;;;;;;;0.50;0.32;;;;;;;1.25;80.88;98143.88;5106564;27;20078;-71
2023/01/04 00:22:09;;;;;;;0.77;0.47;;;;;;;1.28;80.65;98148.97;5058897;28;20165;-65
2023/01/04 00:24:34;;;;;;;1.13;0.50;;;;;;;1.36;80.78;98149.34;5085697;27;20382;-73
2023/01/04 00:26:58;;;;;;;0.73;0.40;;;;;;;1.40;80.86;98159.59;5090364;27;20142;-74
2023/01/04 00:29:23;;;;;;;0.30;0.30;;;;;;;1.38;80.27;98165.88;5091278;27;20572;-72
2023/01/04 00:31:48;;;;;;;0.98;0.57;;;;;;;1.39;80.45;98168.41;5085597;27;20438;-72
2023/01/04 00:34:14;;;;;;;0.40;0.40;;;;;;;1.42;80.02;98170.03;5099378;27;20076;-72
2023/01/04 00:36:40;;;;;;;0.32;0.32;;;;;;;1.37;80.09;98182.56;5077864;27;20428;-71
2023/01/04 00:39:08;;;;;;;0.28;0.28;;;;;;;1.43;80.19;98174.34;5077594;27;20043;-69
2023/01/04 00:41:47;;;;;;;0.82;0.60;;;;;;;1.47;80.21;98193.41;5075690;27;20842;-70
2023/01/04 00:44:12;;;;;;;1.17;0.38;;;;;;;1.34;79.65;98190.63;5063523;27;20485;-69
2023/01/04 00:46:38;;;;;;;0.55;0.55;;;;;;;1.36;80.40;98194.84;5093276;27;20073;-71
2023/01/04 00:49:04;;;;;;;0.13;0.13;;;;;;;1.37;80.49;98211.44;5115431;27;20042;-68
2023/01/04 00:51:30;;;;;;;0.25;0.25;;;;;;;1.30;80.62;98220.59;5096904;27;20168;-72
2023/01/04 00:53:56;;;;;;;1.50;0.63;;;;;;;1.25;81.14;98223.47;5099511;27;20057;-72
2023/01/04 00:56:20;;;;;;;0.80;0.80;;;;;;;1.16;81.14;98244.16;5067790;27;21029;-71
2023/01/04 00:58:45;;;;;;;1.83;1.05;;;;;;;1.20;81.29;98259.66;5065497;27;20147;-72
2023/01/04 01:01:10;;;;;;;1.27;0.95;;;;;;;1.20;81.39;98270.16;5058858;27;20037;-72
2023/01/04 01:03:35;;;;;;;3.17;1.75;;;;;;;1.12;81.35;98272.38;5113456;27;20882;-70
2023/01/04 01:06:04;;;;;;;4.05;2.33;;;;;;;1.08;80.78;98279.56;5118173;27;20034;-68
2023/01/04 01:08:28;;;;;;;3.95;2.58;;;;;;;0.93;80.54;98301.38;5109857;27;20899;-67
2023/01/04 01:10:54;;;;;;;5.05;2.72;;;;;;;0.72;79.95;98313.00;5087297;27;20525;-66
2023/01/04 01:13:19;;;;;;;5.18;2.25;;;;;;;0.60;80.24;98321.53;5085280;27;20043;-65
2023/01/04 01:15:44;;;;;;;4.25;2.55;;;;;;;0.52;79.75;98326.34;5082778;27;20087;-67
2023/01/04 01:18:08;;;;;;;3.70;2.47;;;;;;;0.38;79.50;98340.16;5100153;27;20031;-67
2023/01/04 01:20:33;;;;;;;3.95;2.40;;;;;;;0.28;79.41;98342.38;5099782;27;20039;-67
2023/01/04 01:22:58;;;;;;;3.78;2.75;;;;;;;0.21;79.18;98359.38;5081543;27;20122;-67
2023/01/04 01:25:22;;;;;;;5.93;3.05;;;;;;;0.09;78.56;98364.38;5085687;27;20046;-66
2023/01/04 01:27:47;;;;;;;5.90;3.03;;;;;;;-0.05;78.82;98367.66;5108518;27;20043;-65
2023/01/04 01:30:11;;;;;;;6.13;2.63;;;;;;;-0.07;78.49;98370.34;5089607;27;20070;-69
2023/01/04 01:32:36;;;;;;;3.45;2.47;;;;;;;-0.20;78.50;98373.63;5095962;27;20043;-64
2023/01/04 01:35:00;;;;;;;5.18;2.92;;;;;;;-0.22;78.35;98383.31;5124171;27;20564;-64
2023/01/04 01:37:25;;;;;;;3.85;2.30;;;;;;;-0.24;78.75;98382.56;5080147;27;20038;-69
2023/01/04 01:39:50;;;;;;;5.32;2.80;;;;;;;-0.32;78.25;98395.16;5096088;27;20117;-71
2023/01/04 01:42:19;;;;;;;3.00;2.30;;;;;;;-0.32;78.52;98416.97;5082997;27;20094;-72
2023/01/04 01:44:44;;;;;;;4.22;3.00;;;;;;;-0.31;78.29;98412.56;5052733;28;20039;-70
2023/01/04 01:47:36;;;;;;;2.90;2.38;;;;;;;-0.22;78.86;98418.22;5097632;27;20232;-68
2023/01/04 01:50:03;;;;;;;5.05;3.05;;;;;;;-0.30;78.90;98417.75;5081522;27;20626;-67
2023/01/04 01:52:33;;;;;;;3.90;2.78;;;;;;;-0.27;78.34;98435.09;5082379;27;20042;-65
2023/01/04 01:55:01;;;;;;;3.83;2.72;;;;;;;-0.40;78.25;98451.38;5079501;28;20059;-67
2023/01/04 01:57:33;;;;;;;4.55;2.40;;;;;;;-0.44;77.99;98462.03;5097655;27;20047;-68
2023/01/04 02:00:03;;;;;;;3.75;2.50;;;;;;;-0.49;78.12;98467.50;5057690;28;20052;-68
2023/01/04 02:02:50;;;;;;;5.38;3.22;;;;;;;-0.48;77.78;98479.69;5094046;27;20038;-70
2023/01/04 02:05:17;;;;;;;3.55;2.90;;;;;;;-0.53;77.61;98483.41;5079627;27;20061;-75
2023/01/04 02:07:42;;;;;;;2.92;2.28;;;;;;;-0.59;77.68;98495.03;5078825;27;20475;-69
2023/01/04 02:10:07;;;;;;;3.60;3.05;;;;;;;-0.57;77.63;98500.19;5078433;27;20038;-68
2023/01/04 02:12:32;;;;;;;5.78;2.47;;;;;;;-0.64;77.57;98504.84;5096650;27;20850;-73
2023/01/04 02:14:56;;;;;;;5.32;2.78;;;;;;;-0.59;77.56;98513.34;5062003;27;20147;-75
2023/01/04 02:17:38;;;;;;;3.92;2.53;;;;;;;-0.60;77.81;98529.09;5098353;27;20071;-72
2023/01/04 02:20:29;;;;;;;3.30;2.05;;;;;;;-0.54;78.18;98523.59;5079540;27;20122;-77
2023/01/04 02:23:16;;;;;;;4.32;2.53;;;;;;;-0.59;77.99;98539.50;5097637;27;20391;-73
2023/01/04 02:26:05;;;;;;;3.70;3.25;;;;;;;-0.65;77.90;98555.47;5096818;27;20184;-73
2023/01/04 02:28:57;;;;;;;3.47;2.67;;;;;;;-0.74;77.57;98555.88;5062451;27;20069;-74
2023/01/04 02:31:44;;;;;;;7.35;3.08;;;;;;;-0.79;77.96;98558.69;5061347;27;20047;-71
2023/01/04 02:34:25;;;;;;;3.00;2.53;;;;;;;-0.82;77.54;98566.69;5065480;27;20051;-72
2023/01/04 02:37:03;;;;;;;5.15;3.70;;;;;;;-0.89;78.20;98574.84;5075897;27;20019;-71
2023/01/04 02:39:34;;;;;;;5.40;3.30;;;;;;;-0.94;77.92;98574.19;5088423;27;20043;-74
2023/01/04 02:42:16;;;;;;;3.65;2.90;;;;;;;-0.90;77.76;98591.44;5066126;27;20058;-79
2023/01/04 02:44:56;;;;;;;4.30;3.63;;;;;;;-0.94;78.06;98593.38;5080779;27;20095;-81
2023/01/04 02:50:32;;;;;;;3.90;2.80;;;;;;;-0.86;78.28;98612.19;5099053;27;20047;-80
2023/01/04 02:53:13;;;;;;;6.43;3.10;;;;;;;-0.88;78.26;98607.94;5063865;27;20038;-81
2023/01/04 02:55:41;;;;;;;2.90;2.65;;;;;;;-0.97;77.79;98624.03;5080279;27;20574;-78
2023/01/04 02:58:44;;;;;;;5.13;3.25;;;;;;;-0.90;78.22;98625.47;5098441;27;20125;-77
2023/01/04 03:07:42;;;;;;;4.18;3.05;;;;;;;-0.96;78.20;98665.81;5080439;27;20066;-77
2023/01/04 03:10:42;;;;;;;5.03;3.20;;;;;;;-0.96;78.26;98660.59;5079536;27;20134;-77
2023/01/04 03:13:17;;;;;;;4.32;2.95;;;;;;;-1.01;78.05;98672.13;5067104;27;20039;-77
2023/01/04 03:15:44;;;;;;;4.20;3.17;;;;;;;-1.11;77.94;98672.50;5079530;27;20079;-77
2023/01/04 03:18:17;;;;;;;7.07;3.42;;;;;;;-1.05;77.88;98683.66;5080167;27;20043;-77
2023/01/04 03:20:45;;;;;;;4.07;2.90;;;;;;;-1.06;78.09;98693.25;5078543;27;20062;-74
2023/01/04 03:37:03;;;;;;;4.32;3.08;;;;;;;-1.04;77.93;98721.97;5084979;27;20087;-66
2023/01/04 03:48:32;;;;;;;4.57;2.58;;;;;;;-1.18;77.95;98752.13;5097109;28;20042;-65
2023/01/04 03:51:03;;;;;;;4.07;2.92;;;;;;;-1.17;77.90;98766.06;5097655;27;20099;-65
2023/01/04 03:53:32;;;;;;;3.17;2.30;;;;;;;-1.23;77.74;98767.13;5057624;28;20047;-64
2023/01/04 03:55:57;;;;;;;5.03;2.65;;;;;;;-1.25;77.36;98773.34;5059113;28;20040;-64
2023/01/04 03:58:23;;;;;;;2.30;1.95;;;;;;;-1.26;77.33;98777.72;5095688;28;20074;-65
2023/01/04 04:00:48;;;;;;;7.57;2.90;;;;;;;-1.28;77.36;98791.75;5077070;28;20089;-66
2023/01/04 04:03:13;;;;;;;3.88;2.67;;;;;;;-1.24;77.27;98785.50;5076854;28;20038;-65
2023/01/04 04:08:30;;;;;;;5.88;2.80;;;;;;;-1.16;77.23;98797.38;5095223;28;20126;-67
2023/01/04 04:13:45;;;;;;;8.55;3.83;;;;;;;-1.07;77.30;98800.56;5095188;28;20122;-66
2023/01/04 04:16:10;;;;;;;4.13;2.72;;;;;;;-1.05;77.50;98806.59;5095244;28;20096;-67
2023/01/04 04:18:34;;;;;;;4.60;3.13;;;;;;;-1.06;77.22;98807.50;5056551;28;20035;-67
2023/01/04 04:20:59;;;;;;;3.10;2.67;;;;;;;-0.98;77.58;98810.66;5040066;28;20047;-67
2023/01/04 04:23:24;;;;;;;5.00;2.70;;;;;;;-1.01;77.71;98821.22;5058663;28;20118;-67
2023/01/04 04:25:48;;;;;;;2.67;2.22;;;;;;;-1.00;77.70;98828.16;5077153;28;20187;-67
2023/01/04 04:28:13;;;;;;;4.13;2.70;;;;;;;-1.00;77.59;98830.78;5096661;28;20039;-72
2023/01/04 04:30:39;;;;;;;4.45;2.50;;;;;;;-0.99;77.76;98838.59;5078868;28;20446;-71
2023/01/04 04:33:04;;;;;;;4.28;3.05;;;;;;;-0.91;78.05;98851.41;5078927;28;20091;-71
2023/01/04 04:35:28;;;;;;;3.72;2.53;;;;;;;-0.97;77.75;98841.16;5094985;28;20043;-70
2023/01/04 04:37:53;;;;;;;3.97;2.63;;;;;;;-1.00;77.72;98852.56;5095624;28;20122;-70
2023/01/04 04:43:01;;;;;;;4.05;2.63;;;;;;;-0.98;77.56;98858.59;5059660;28;20035;-70
2023/01/04 04:45:25;;;;;;;2.72;2.25;;;;;;;-1.02;77.39;98859.66;5076507;28;20050;-70
2023/01/04 04:47:50;;;;;;;2.85;2.13;;;;;;;-1.09;77.54;98863.38;5039448;28;20667;-71
2023/01/04 04:50:14;;;;;;;2.13;1.85;;;;;;;-1.13;77.35;98875.72;5090716;28;20043;-71
2023/01/04 04:52:40;;;;;;;2.30;2.10;;;;;;;-1.15;77.31;98890.63;5095132;28;20043;-72
2023/01/04 04:55:05;;;;;;;2.95;2.50;;;;;;;-1.12;77.08;98894.88;5096456;27;20115;-72
2023/01/04 04:57:30;;;;;;;1.77;1.67;;;;;;;-1.17;76.73;98884.59;5098845;27;20431;-70
2023/01/04 04:59:55;;;;;;;3.58;1.98;;;;;;;-1.24;76.89;98903.19;5080059;27;20406;-73
2023/01/04 05:02:19;;;;;;;4.20;2.15;;;;;;;-1.29;76.93;98905.09;5079958;27;20031;-66
2023/01/04 05:04:44;;;;;;;2.83;1.92;;;;;;;-1.34;76.77;98913.09;5063046;27;20149;-67
2023/01/04 05:07:08;;;;;;;2.83;2.05;;;;;;;-1.34;77.12;98917.47;5065165;27;20065;-68
2023/01/04 05:09:33;;;;;;;3.85;2.53;;;;;;;-1.32;76.82;98918.28;5098162;27;20565;-67
2023/01/04 05:14:40;;;;;;;3.25;2.70;;;;;;;-1.38;76.73;98945.50;5080011;27;20039;-68
2023/01/04 05:17:05;;;;;;;2.38;1.98;;;;;;;-1.37;77.03;98946.34;5079862;27;20031;-67
2023/01/04 05:19:29;;;;;;;2.03;1.92;;;;;;;-1.35;76.91;98945.38;5079792;27;20397;-67
2023/01/04 05:21:54;;;;;;;3.20;2.28;;;;;;;-1.38;76.73;98945.50;5079711;27;20035;-66
2023/01/04 05:24:19;;;;;;;3.20;2.63;;;;;;;-1.36;77.01;98953.28;5080095;27;20046;-66
2023/01/04 05:26:43;;;;;;;3.78;2.10;;;;;;;-1.38;77.05;98950.72;5054570;28;20046;-66
2023/01/04 05:30:49;;;;;;;1.48;1.38;;;;;;;-1.38;77.21;98952.47;5091959;27;20058;-67
2023/01/04 05:31:52;;;;;;;2.45;2.13;;;;;;;-1.33;77.15;98966.22;5098539;27;20035;-66
2023/01/04 05:34:17;;;;;;;3.72;2.10;;;;;;;-1.32;76.24;98960.97;5098542;27;20095;-67
2023/01/04 05:36:41;;;;;;;3.35;2.55;;;;;;;-1.42;75.85;98975.25;5098210;27;20039;-67
2023/01/04 05:39:06;;;;;;;2.88;2.22;;;;;;;-1.55;75.63;98982.66;5051805;28;20394;-66
2023/01/04 05:44:14;;;;;;;3.22;2.30;;;;;;;-1.55;76.03;99000.94;5100445;27;20039;-68
2023/01/04 05:46:38;;;;;;;3.20;1.83;;;;;;;-1.53;75.85;98998.28;5099791;27;20043;-67
2023/01/04 05:49:03;;;;;;;2.80;2.20;;;;;;;-1.56;75.93;99006.22;5062397;28;20070;-69
2023/01/04 05:51:28;;;;;;;8.93;3.17;;;;;;;-1.56;75.95;99024.50;5091584;27;20047;-68
2023/01/04 05:53:52;;;;;;;4.65;2.13;;;;;;;-1.54;76.05;99012.25;5099767;27;20039;-68
2023/01/04 05:56:17;;;;;;;3.85;2.70;;;;;;;-1.55;75.79;99023.59;5099692;27;20050;-69
2023/01/04 05:58:41;;;;;;;4.15;2.40;;;;;;;-1.50;75.50;99026.94;5098072;27;20059;-68
2023/01/04 06:01:06;;;;;;;2.53;1.45;;;;;;;-1.58;75.30;99031.56;5097759;27;20128;-67
2023/01/04 06:03:31;;;;;;;4.53;2.05;;;;;;;-1.65;75.34;99037.88;5042604;28;20099;-67
2023/01/04 06:05:55;;;;;;;1.90;1.80;;;;;;;-1.68;75.03;99030.97;5058235;28;20042;-67
2023/01/04 06:08:20;;;;;;;3.58;2.28;;;;;;;-1.71;74.78;99032.88;5069216;27;20038;-67
2023/01/04 06:10:51;;;;;;;3.28;1.88;;;;;;;-1.66;75.17;99038.78;5079704;27;20050;-69
2023/01/04 06:13:16;;;;;;;2.33;1.90;;;;;;;-1.61;75.39;99042.13;5079953;27;20035;-68
2023/01/04 06:15:43;;;;;;;3.47;2.42;;;;;;;-1.65;75.17;99041.34;5098899;27;20626;-68
2023/01/04 06:18:08;;;;;;;3.58;2.17;;;;;;;-1.66;75.51;99036.16;5059865;28;20032;-68
2023/01/04 06:20:33;;;;;;;2.80;2.20;;;;;;;-1.66;75.21;99039.63;5072879;27;20053;-68
2023/01/04 06:22:57;;;;;;;2.35;1.83;;;;;;;-1.63;75.14;99049.16;5097042;27;20497;-68
2023/01/04 06:25:22;;;;;;;2.58;1.88;;;;;;;-1.61;74.90;99056.03;5078523;27;20051;-68
2023/01/04 06:27:46;;;;;;;2.75;2.10;;;;;;;-1.58;74.87;99057.72;5097056;27;20035;-67
2023/01/04 06:30:11;;;;;;;3.75;2.97;;;;;;;-1.44;75.62;99076.41;5052486;28;20585;-67
2023/01/04 06:32:35;;;;;;;2.83;2.05;;;;;;;-1.48;75.47;99077.41;5058749;28;20039;-67
2023/01/04 06:35:00;;;;;;;3.22;2.25;;;;;;;-1.49;75.42;99083.53;5096790;27;20470;-67
2023/01/04 06:37:25;;;;;;;3.03;1.95;;;;;;;-1.49;75.38;99091.38;5096516;27;20523;-67
2023/01/04 06:39:50;;;;;;;2.95;1.90;;;;;;;-1.57;75.38;99086.38;5042711;28;20039;-68
2023/01/04 06:44:58;;;;;;;1.98;1.60;;;;;;;-1.65;75.26;99105.81;5096612;27;20065;-67
2023/01/04 06:47:22;;;;;;;3.25;2.30;;;;;;;-1.66;74.92;99106.72;5057899;28;20083;-67
2023/01/04 06:49:47;;;;;;;3.47;2.35;;;;;;;-1.67;75.22;99105.00;5073551;27;20043;-67
2023/01/04 06:52:12;;;;;;;3.50;2.15;;;;;;;-1.65;75.16;99103.22;5080024;27;20406;-67
2023/01/04 06:54:36;;;;;;;2.95;2.30;;;;;;;-1.64;75.08;99125.84;5077748;27;20050;-67
2023/01/04 06:57:01;;;;;;;5.05;3.17;;;;;;;-1.62;75.12;99130.13;5060856;27;20039;-67
2023/01/04 06:59:25;;;;;;;6.47;3.05;;;;;;;-1.62;75.34;99116.19;5070858;28;20053;-67
2023/01/04 07:01:50;;;;;;;6.07;3.95;;;;;;;-1.61;75.04;99124.00;5089613;27;20467;-66
2023/01/04 07:04:14;;;;;;;4.35;2.88;;;;;;;-1.58;74.78;99128.28;5077812;27;20043;-66
2023/01/04 07:06:39;;;;;;;5.85;3.38;;;;;;;-1.57;74.83;99127.34;5078507;27;20047;-69
2023/01/04 07:09:04;;;;;;;4.57;2.78;;;;;;;-1.55;74.51;99130.78;5077978;27;20043;-69
2023/01/04 07:11:28;;;;;;;4.18;2.25;;;;;;;-1.54;74.20;99141.19;5077819;27;20039;-69
2023/01/04 07:13:53;;;;;;;2.35;1.75;;;;;;;-1.49;74.28;99133.22;5077932;27;20655;-69
2023/01/04 07:16:18;;;;;;;3.35;2.63;;;;;;;-1.52;74.37;99139.38;5096375;27;20080;-69
2023/01/04 07:18:42;;;;;;;1.98;1.52;;;;;;;-1.67;71.24;99146.81;5049256;28;20403;-70
2023/01/04 07:21:07;;;;;;;2.47;1.92;;;;;;;-1.59;72.65;99150.09;5094277;27;20402;-69
2023/01/04 07:23:32;;;;;;;10.35;1.75;;;;;;;-1.55;73.04;99163.00;5077675;27;20039;-69
2023/01/04 07:26:00;;;;;;;4.28;2.53;;;;;;;-1.58;72.37;99157.84;5096081;27;20051;-69
2023/01/04 07:31:08;;;;;;;3.45;2.00;;;;;;;-1.59;72.41;99182.31;5099447;27;20047;-69
2023/01/04 07:33:32;;;;;;;4.47;2.17;;;;;;;-1.56;72.26;99191.78;5080976;27;20116;-68
2023/01/04 07:36:01;;;;;;;4.32;2.47;;;;;;;-1.55;71.93;99194.34;5079226;27;20042;-69
2023/01/04 07:38:26;;;;;;;4.57;2.42;;;;;;;-1.62;70.51;99191.97;5077875;27;20095;-68
2023/01/04 07:40:54;;;;;;;3.42;2.47;;;;;;;-1.54;71.66;99200.44;5078255;28;20125;-68
2023/01/04 07:43:19;;;;;;;5.18;2.20;;;;;;;-1.54;71.46;99203.06;5077649;27;20106;-67
2023/01/04 07:45:45;;;;;;;2.58;2.38;;;;;;;-1.56;72.18;99204.84;5077862;28;20042;-68
2023/01/04 07:48:09;;;;;;;6.65;3.72;;;;;;;-1.59;72.33;99202.34;5077349;28;20517;-67
2023/01/04 07:50:34;;;;;;;4.57;2.53;;;;;;;-1.56;72.60;99207.47;5061018;28;20631;-66
2023/01/04 07:53:00;;;;;;;3.60;2.65;;;;;;;-1.50;73.19;99212.53;5061540;28;20059;-66
2023/01/04 07:55:25;;;;;;;4.68;3.10;;;;;;;-1.49;73.84;99215.09;5048343;28;20043;-68
2023/01/04 07:57:52;;;;;;;2.40;2.20;;;;;;;-1.52;73.59;99214.31;5104862;28;20107;-69
2023/01/04 08:00:16;;;;;;;9.65;3.70;;;;;;;-1.58;73.47;99215.34;5096637;28;20187;-68
2023/01/04 08:02:41;;;;;;;5.40;3.50;;;;;;;-1.60;73.50;99216.31;5071665;28;20138;-68
2023/01/04 08:05:06;;;;;;;4.25;3.20;;;;;;;-1.60;73.63;99218.94;5057219;28;20130;-67
2023/01/04 08:07:32;;;;;;;9.48;5.80;;;;;;;-1.69;72.82;99211.38;5075641;28;20094;-67
2023/01/04 08:09:56;;;;;;;8.82;4.85;;;;;;;-1.79;70.86;99220.34;5096037;28;20125;-67
2023/01/04 08:12:21;;;;;;;10.25;5.85;;;;;;;-1.89;69.98;99225.84;5096051;28;20124;-70
2023/01/04 08:14:45;;;;;;;13.57;6.32;;;;;;;-1.77;71.17;99229.00;5078607;28;20098;-69
2023/01/04 08:17:10;;;;;;;11.65;5.88;;;;;;;-2.03;68.23;99235.78;5087226;28;20064;-68
2023/01/04 08:19:34;;;;;;;8.18;4.90;;;;;;;-1.92;69.82;99238.16;5060909;28;20046;-69
2023/01/04 08:21:59;;;;;;;8.93;4.75;;;;;;;-1.80;71.02;99248.22;5095524;28;20054;-68
2023/01/04 08:24:24;;;;;;;16.33;5.28;;;;;;;-1.73;71.98;99262.84;5063207;28;20046;-70
2023/01/04 08:26:48;;;;;;;9.38;5.35;;;;;;;-1.76;72.05;99236.78;5096375;28;20084;-68
2023/01/04 08:29:13;;;;;;;7.65;4.85;;;;;;;-1.78;71.50;99251.66;5116298;27;20023;-68
2023/01/04 08:31:38;;;;;;;9.80;5.50;;;;;;;-1.79;71.65;99255.16;5120117;27;20069;-69
2023/01/04 08:34:05;;;;;;;8.60;4.75;;;;;;;-1.79;71.46;99244.72;5080015;28;20044;-68
2023/01/04 08:36:33;;;;;;;8.98;5.72;;;;;;;-1.76;70.46;99239.41;5099370;27;20053;-67
2023/01/04 08:39:01;;;;;;;7.05;4.75;;;;;;;-1.76;70.47;99247.25;5102895;27;20060;-70
2023/01/04 08:41:26;;;;;;;9.68;6.13;;;;;;;-1.71;71.24;99257.59;5120869;27;20015;-67
2023/01/04 08:43:50;;;;;;;8.10;5.78;;;;;;;-1.70;70.78;99246.25;5119050;27;20042;-68
2023/01/04 08:46:15;;;;;;;14.00;7.05;;;;;;;-1.72;69.92;99251.50;5094767;27;20035;-68
2023/01/04 08:48:40;;;;;;;11.93;6.13;;;;;;;-1.68;69.81;99249.63;5114483;27;20043;-67
2023/01/04 08:51:11;;;;;;;12.93;6.35;;;;;;;-1.59;71.06;99258.09;5115446;27;20166;-68
2023/01/04 08:53:36;;;;;;;9.95;6.00;;;;;;;-1.59;71.03;99252.88;5114451;27;20047;-68
2023/01/04 08:56:01;;;;;;;9.25;5.85;;;;;;;-1.57;71.37;99256.28;5095582;27;20043;-67
2023/01/04 08:58:27;;;;;;;8.85;6.00;;;;;;;-1.62;71.25;99250.34;5091168;27;20134;-68
2023/01/04 09:00:51;;;;;;;9.57;6.28;;;;;;;-1.60;71.80;99252.91;5101822;27;20117;-67
2023/01/04 09:03:16;;;;;;;11.02;6.55;;;;;;;-1.61;71.58;99261.66;5082808;27;20078;-67
2023/01/04 09:05:41;;;;;;;11.60;6.20;;;;;;;-1.59;71.70;99254.63;5101887;27;20074;-68
2023/01/04 09:08:06;;;;;;;8.98;5.95;;;;;;;-1.60;71.69;99259.00;5082694;27;20103;-67
2023/01/04 09:10:30;;;;;;;10.93;6.53;;;;;;;-1.59;71.55;99255.50;5101433;27;20494;-67
2023/01/04 09:12:55;;;;;;;9.95;5.60;;;;;;;-1.59;71.54;99250.25;5084406;27;20548;-68
2023/01/04 09:15:20;;;;;;;11.40;7.65;;;;;;;-1.62;70.84;99249.47;5083471;27;20042;-66
2023/01/04 09:17:45;;;;;;;10.63;7.13;;;;;;;-1.65;70.14;99249.56;5101989;27;20039;-68
2023/01/04 09:20:09;;;;;;;11.65;7.82;;;;;;;-1.64;69.44;99241.69;5046255;28;20130;-70
2023/01/04 09:22:34;;;;;;;9.70;6.65;;;;;;;-1.66;68.52;99251.31;5078598;27;20043;-69
2023/01/04 09:24:59;;;;;;;10.60;6.32;;;;;;;-1.64;68.95;99256.50;5082894;27;20096;-68
2023/01/04 09:27:24;;;;;;;10.07;6.60;;;;;;;-1.62;68.83;99257.31;5083110;27;20078;-72
2023/01/04 09:29:48;;;;;;;13.45;7.22;;;;;;;-1.57;69.82;99248.44;5101225;27;20125;-71
2023/01/04 09:32:14;;;;;;;9.63;6.38;;;;;;;-1.65;68.53;99252.16;5100966;27;20039;-71
2023/01/04 09:34:38;;;;;;;12.05;8.02;;;;;;;-1.81;68.07;99271.81;5101396;27;20056;-71
2023/01/04 09:37:03;;;;;;;11.93;7.25;;;;;;;-1.75;69.09;99262.03;5100854;27;20139;-73
2023/01/04 09:39:29;;;;;;;12.32;7.05;;;;;;;-1.69;70.06;99264.47;5098693;27;20051;-73
2023/01/04 09:42:04;;;;;;;13.38;7.70;;;;;;;-1.68;69.51;99273.16;5098198;27;20125;-72
2023/01/04 09:44:49;;;;;;;12.55;7.22;;;;;;;-1.65;68.96;99262.63;5097987;27;20043;-73
2023/01/04 09:47:42;;;;;;;11.88;6.75;;;;;;;-1.62;69.45;99266.00;5098095;27;20035;-73
2023/01/04 09:50:27;;;;;;;11.00;6.53;;;;;;;-1.60;69.09;99264.22;5038586;28;20057;-71
2023/01/04 09:53:17;;;;;;;14.07;7.68;;;;;;;-1.54;69.24;99273.63;5022966;28;20040;-70
2023/01/04 09:55:47;;;;;;;11.02;6.10;;;;;;;-1.57;69.79;99269.34;5036104;28;20079;-71
2023/01/04 09:58:21;;;;;;;13.30;7.63;;;;;;;-1.62;68.14;99270.38;5035384;28;20122;-71
2023/01/04 10:00:58;;;;;;;14.57;8.32;;;;;;;-1.64;69.11;99269.56;5020827;28;20541;-72
2023/01/04 10:03:27;;;;;;;16.80;8.95;;;;;;;-1.60;69.00;99258.13;5038851;28;20049;-72
2023/01/04 10:05:54;;;;;;;14.82;8.23;;;;;;;-1.66;68.44;99253.94;5019064;28;20044;-71
2023/01/04 10:08:19;;;;;;;12.90;7.82;;;;;;;-1.65;68.65;99254.78;5034402;28;20107;-73
2023/01/04 10:11:02;;;;;;;14.38;8.40;;;;;;;-1.63;67.96;99253.84;5037307;28;20161;-74
2023/01/04 10:13:30;;;;;;;12.27;8.02;;;;;;;-1.67;67.44;99240.91;5046627;28;20049;-72
2023/01/04 10:15:55;;;;;;;10.82;6.95;;;;;;;-1.71;67.07;99228.84;5024777;28;20127;-73
2023/01/04 10:18:52;;;;;;;12.00;6.70;;;;;;;-1.70;66.37;99241.00;5042171;28;20199;-72
2023/01/04 10:21:27;;;;;;;11.98;6.75;;;;;;;-1.64;67.83;99235.59;5041525;28;20033;-73
2023/01/04 10:24:04;;;;;;;11.50;6.38;;;;;;;-1.57;67.53;99251.03;4997544;28;20099;-72
2023/01/04 10:26:38;;;;;;;9.07;5.63;;;;;;;-1.60;66.95;99245.06;5038301;27;20035;-72
2023/01/04 10:29:25;;;;;;;9.27;5.57;;;;;;;-1.55;67.43;99238.78;5098742;27;20125;-68
2023/01/04 10:32:03;;;;;;;9.77;5.80;;;;;;;-1.56;66.85;99239.69;5085019;27;20524;-67
2023/01/04 10:34:31;;;;;;;13.75;5.63;;;;;;;-1.50;68.35;99241.28;5078206;27;20046;-68
2023/01/04 10:37:19;;;;;;;10.40;6.10;;;;;;;-1.47;67.68;99246.44;5096658;27;20042;-68
2023/01/04 10:39:44;;;;;;;9.50;5.65;;;;;;;-1.59;67.01;99244.16;5097128;27;20043;-69
2023/01/04 10:42:10;;;;;;;10.52;5.53;;;;;;;-1.53;67.99;99241.38;5078809;27;20405;-69
2023/01/04 10:44:43;;;;;;;11.15;6.65;;;;;;;-1.55;67.29;99251.00;5079170;27;20889;-66
2023/01/04 10:47:16;;;;;;;10.68;6.13;;;;;;;-1.51;67.33;99243.03;5096462;27;20043;-67
2023/01/04 10:49:48;;;;;;;10.10;6.28;;;;;;;-1.52;67.17;99240.47;5078429;27;20054;-68
2023/01/04 10:52:23;;;;;;;10.77;6.32;;;;;;;-1.61;67.46;99238.13;5077698;27;20448;-69
2023/01/04 10:55:27;;;;;;;10.38;5.85;;;;;;;-1.53;68.55;99229.16;5096593;27;20077;-68
2023/01/04 10:57:58;;;;;;;11.48;6.38;;;;;;;-1.59;68.00;99233.72;5096898;27;20122;-69
2023/01/04 11:00:29;;;;;;;9.07;5.32;;;;;;;-1.56;67.81;99231.00;5078175;27;20062;-68
2023/01/04 11:03:06;;;;;;;8.23;5.25;;;;;;;-1.51;67.65;99229.97;5077980;27;20092;-69
2023/01/04 11:05:43;;;;;;;6.70;4.55;;;;;;;-1.52;67.82;99230.88;5077994;27;20031;-69
2023/01/04 11:08:18;;;;;;;7.55;4.13;;;;;;;-1.50;67.58;99231.69;5095854;27;20073;-67
2023/01/04 11:10:46;;;;;;;;;;;;;;;-1.46;65.95;99241.13;5078302;27;20107;-68
2023/01/04 11:13:11;;;;;;;11.82;5.53;;;;;;;-1.58;66.46;99241.47;5077870;27;19915;-67
2023/01/04 11:15:36;;;;;;;9.15;5.00;;;;;;;-1.62;66.09;99239.03;5095636;27;20084;-70
2023/01/04 11:18:04;;;;;;;9.25;5.97;;;;;;;-1.73;66.22;99241.09;5088812;27;20031;-69
2023/01/04 11:20:31;;;;;;;7.72;4.53;;;;;;;-1.69;66.92;99258.41;5092782;27;20813;-70
2023/01/04 11:22:56;;;;;;;5.13;3.65;;;;;;;-1.69;66.65;99250.56;5077236;27;20031;-69
2023/01/04 11:25:22;;;;;;;5.70;3.80;;;;;;;-1.69;66.83;99268.84;5095503;27;20054;-68
2023/01/04 11:27:53;;;;;;;5.60;3.15;;;;;;;-1.76;65.94;99262.94;5076412;27;20043;-68
2023/01/04 11:30:22;;;;;;;9.57;4.00;;;;;;;-1.83;65.61;99257.03;5057646;27;20460;-68
2023/01/04 11:33:07;;;;;;;6.40;4.07;;;;;;;-1.80;65.54;99271.75;5095202;27;20054;-66
2023/01/04 11:35:41;;;;;;;8.98;3.33;;;;;;;-1.80;66.14;99263.03;5094991;27;20041;-68
2023/01/04 11:38:09;;;;;;;;;;;;;;;-1.69;66.91;99266.25;5077578;27;20035;-71
2023/01/04 11:40:34;;;;;;;3.33;2.17;;;;;;;-1.80;66.18;99266.50;5095872;27;20316;-69
2023/01/04 11:43:19;;;;;;;3.10;2.35;;;;;;;-1.79;65.66;99267.38;5095476;27;20557;-69
2023/01/04 11:46:16;;;;;;;7.88;2.72;;;;;;;-1.79;65.72;99259.53;5077551;27;20049;-69
2023/01/04 11:48:44;;;;;;;3.47;2.30;;;;;;;-1.85;65.65;99271.88;4995418;28;20130;-69
2023/01/04 11:51:29;;;;;;;3.28;2.28;;;;;;;-1.77;66.77;99265.56;4995903;28;20045;-69
2023/01/04 11:53:56;;;;;;;3.58;2.60;;;;;;;-1.77;66.42;99265.56;5005860;28;20044;-70
2023/01/04 11:56:23;;;;;;;4.00;2.53;;;;;;;-1.80;66.28;99266.50;4995178;28;20128;-71
2023/01/04 11:59:15;;;;;;;4.65;3.00;;;;;;;-1.77;65.62;99260.34;5010154;28;20227;-69
2023/01/04 12:01:45;;;;;;;5.15;2.63;;;;;;;-2.09;64.19;99259.47;5025123;28;20112;-68
2023/01/04 12:04:11;;;;;;;3.63;2.45;;;;;;;-2.03;65.53;99267.13;5024501;28;20072;-70
2023/01/04 12:06:36;;;;;;;4.90;3.22;;;;;;;-2.10;65.73;99268.22;5009046;28;20045;-72
2023/01/04 12:09:01;;;;;;;3.40;2.55;;;;;;;-2.13;65.70;99263.06;5017222;28;20036;-70
2023/01/04 12:11:32;;;;;;;4.50;2.85;;;;;;;-2.06;65.89;99272.47;5016665;28;20044;-69
2023/01/04 12:13:58;;;;;;;4.32;3.38;;;;;;;-2.12;65.88;99264.78;5000898;28;20040;-68
2023/01/04 12:16:31;;;;;;;5.10;2.90;;;;;;;-2.12;65.81;99259.56;4999047;28;20052;-69
2023/01/04 12:18:57;;;;;;;4.75;2.75;;;;;;;-2.14;65.81;99260.53;4998478;28;20534;-68
2023/01/04 12:21:24;;;;;;;5.75;3.08;;;;;;;-2.16;66.07;99251.88;5021021;28;20052;-68
2023/01/04 12:23:50;;;;;;;5.65;3.40;;;;;;;-2.13;66.33;99262.19;5019079;27;20038;-66
2023/01/04 12:26:16;;;;;;;4.78;3.17;;;;;;;-2.02;67.13;99258.41;5077292;27;20408;-68
2023/01/04 12:28:47;;;;;;;5.15;3.85;;;;;;;-2.02;66.73;99265.38;5099394;28;20137;-67
2023/01/04 12:31:18;;;;;;;5.10;2.65;;;;;;;-1.95;67.26;99257.38;5060821;28;20470;-66